createdAt,value
2022-12-12T00:01:04.478Z,100943.13
2022-12-12T00:06:27.040Z,100942.78
2022-12-12T00:11:48.699Z,100940.50
2022-12-12T00:17:10.506Z,100951.00
2022-12-12T00:22:32.344Z,100946.19
2022-12-12T00:27:54.110Z,100953.06
2022-12-12T00:33:15.784Z,100950.78
2022-12-12T00:38:37.436Z,100950.19
2022-12-12T00:43:59.124Z,100957.31
2022-12-12T00:49:20.883Z,100942.00
2022-12-12T00:54:42.693Z,100951.88
2022-12-12T01:00:06.338Z,100950.41
2022-12-12T01:05:28.440Z,100948.72
2022-12-12T01:10:50.131Z,100958.63
2022-12-12T01:16:12.827Z,100969.94
2022-12-12T01:21:34.608Z,100971.28
2022-12-12T01:26:56.273Z,100980.06
2022-12-12T01:32:18.016Z,100982.25
2022-12-12T01:37:40.883Z,100988.88
2022-12-12T01:43:02.783Z,100991.03
2022-12-12T01:48:30.203Z,100991.25
2022-12-12T01:53:58.971Z,100999.22
2022-12-12T01:59:24.435Z,100995.84
2022-12-12T02:04:46.280Z,100998.03
2022-12-12T02:10:08.650Z,100996.34
2022-12-12T02:15:42.740Z,100989.94
2022-12-12T02:21:16.229Z,101003.44
2022-12-12T02:26:50.387Z,101010.06
2022-12-12T02:32:22.253Z,101005.84
2022-12-12T02:38:12.504Z,101005.25
2022-12-12T02:44:19.143Z,101003.81
2022-12-12T02:50:07.104Z,101000.44
2022-12-12T02:55:32.466Z,101003.91
2022-12-12T03:01:11.473Z,101001.97
2022-12-12T03:07:00.928Z,100999.94
2022-12-12T03:12:40.435Z,101003.56
2022-12-12T03:18:05.110Z,101005.09
2022-12-12T03:23:43.862Z,101015.94
2022-12-12T03:29:16.590Z,101007.88
2022-12-12T03:34:43.470Z,101016.66
2022-12-12T03:40:10.437Z,101016.91
2022-12-12T03:45:41.400Z,101012.66
2022-12-12T03:51:12.043Z,101025.41
2022-12-12T03:56:59.164Z,101022.28
2022-12-12T04:02:38.565Z,101024.44
2022-12-12T04:08:10.173Z,101024.69
2022-12-12T04:13:57.024Z,101018.53
2022-12-12T04:19:41.818Z,101022.28
2022-12-12T04:25:11.371Z,101045.00
2022-12-12T04:30:35.214Z,101037.41
2022-12-12T04:36:00.452Z,101034.63
2022-12-12T04:41:23.314Z,101041.47
2022-12-12T04:46:48.610Z,101052.53
2022-12-12T04:52:13.770Z,101049.16
2022-12-12T04:57:41.973Z,101047.47
2022-12-12T05:03:16.480Z,101040.25
2022-12-12T05:08:48.908Z,101044.94
2022-12-12T05:14:15.565Z,101043.50
2022-12-12T05:19:37.301Z,101047.34
2022-12-12T05:24:59.024Z,101057.78
2022-12-12T05:30:20.788Z,101045.03
2022-12-12T05:35:42.495Z,101052.47
2022-12-12T05:41:05.472Z,101048.06
2022-12-12T05:46:27.246Z,101052.09
2022-12-12T05:51:49.029Z,101057.03
2022-12-12T05:57:10.776Z,101064.72
2022-12-12T06:02:32.720Z,101061.34
2022-12-12T06:07:54.446Z,101063.03
2022-12-12T06:13:16.296Z,101069.41
2022-12-12T06:18:38.076Z,101072.41
2022-12-12T06:23:59.840Z,101070.72
2022-12-12T06:29:21.754Z,101072.63
2022-12-12T06:34:43.505Z,101071.81
2022-12-12T06:40:05.785Z,101081.16
2022-12-12T06:45:27.505Z,101086.69
2022-12-12T06:50:49.233Z,101094.16
2022-12-12T06:56:14.954Z,101101.84
2022-12-12T07:01:36.575Z,101107.22
2022-12-12T07:06:58.560Z,101106.16
2022-12-12T07:12:20.362Z,101105.78
2022-12-12T07:17:42.117Z,101099.38
2022-12-12T07:23:04.094Z,101119.22
2022-12-12T07:28:25.901Z,101123.06
2022-12-12T07:33:47.880Z,101116.06
2022-12-12T07:39:09.894Z,101122.91
2022-12-12T07:44:31.636Z,101132.50
2022-12-12T07:49:54.742Z,101130.81
2022-12-12T07:55:16.799Z,101129.13
2022-12-12T08:00:38.549Z,101138.28
2022-12-12T08:06:00.187Z,101146.31
2022-12-12T08:11:24.395Z,101155.69
2022-12-12T08:16:46.200Z,101161.22
2022-12-12T08:22:08.774Z,101156.53
2022-12-12T08:27:30.416Z,101168.44
2022-12-12T08:32:52.150Z,101190.53
2022-12-12T08:38:14.776Z,101171.44
2022-12-12T08:43:38.026Z,101168.44
2022-12-12T08:48:59.712Z,101161.22
2022-12-12T08:54:21.449Z,101170.34
2022-12-12T08:59:43.149Z,101166.13
2022-12-12T09:05:05.502Z,101178.03
2022-12-12T09:10:28.217Z,101171.66
2022-12-12T09:15:51.906Z,101163.34
2022-12-12T09:21:13.765Z,101171.91
2022-12-12T09:26:35.437Z,101168.06
2022-12-12T09:31:57.426Z,101178.69
2022-12-12T09:37:19.195Z,101188.09
2022-12-12T09:42:49.372Z,101187.00
2022-12-12T09:48:19.290Z,101180.88
2022-12-12T09:53:44.126Z,101182.16
2022-12-12T09:59:25.054Z,101174.72
2022-12-12T10:05:02.942Z,101185.16
2022-12-12T10:10:31.574Z,101184.31
2022-12-12T10:16:08.373Z,101177.94
2022-12-12T10:21:34.158Z,101172.88
2022-12-12T10:26:55.846Z,101171.66
2022-12-12T10:32:36.348Z,101166.50
2022-12-12T10:38:00.714Z,101180.53
2022-12-12T10:43:24.525Z,101165.06
2022-12-12T10:48:48.586Z,101164.81
2022-12-12T10:54:22.279Z,101149.06
2022-12-12T10:59:46.795Z,101169.47
2022-12-12T11:05:16.845Z,101165.63
2022-12-12T11:10:38.624Z,101162.28
2022-12-12T11:16:12.903Z,101158.41
2022-12-12T11:21:36.808Z,101149.53
2022-12-12T11:27:00.332Z,101144.00
2022-12-12T11:32:30.008Z,101142.31
2022-12-12T11:37:55.988Z,101124.06
2022-12-12T11:43:29.168Z,101119.34
2022-12-12T11:48:53.973Z,101111.56
2022-12-12T11:54:22.865Z,101107.09
2022-12-12T11:59:59.242Z,101105.41
2022-12-12T12:05:28.088Z,101093.94
2022-12-12T12:11:23.881Z,101105.84
2022-12-12T12:16:47.219Z,101098.25
2022-12-12T12:22:44.687Z,101106.53
2022-12-12T12:28:24.885Z,101099.13
2022-12-12T12:33:49.256Z,101092.53
2022-12-12T12:39:20.385Z,101088.06
2022-12-12T12:44:47.884Z,101089.16
2022-12-12T12:50:23.960Z,101078.72
2022-12-12T12:55:50.820Z,101076.44
2022-12-12T13:01:18.570Z,101076.44
2022-12-12T13:06:47.411Z,101072.56
2022-12-12T13:12:30.365Z,101068.97
2022-12-12T13:18:04.689Z,101059.88
2022-12-12T13:23:47.628Z,101065.84
2022-12-12T13:29:29.330Z,101077.97
2022-12-12T13:34:56.886Z,101079.03
2022-12-12T13:40:28.596Z,101076.25
2022-12-12T13:45:50.323Z,101080.09
2022-12-12T13:51:31.137Z,101077.97
2022-12-12T13:56:52.752Z,101070.75
2022-12-12T14:02:23.363Z,101077.97
2022-12-12T14:07:50.672Z,101079.03
2022-12-12T14:13:21.333Z,101077.97
2022-12-12T14:18:52.198Z,101070.75
2022-12-12T14:24:32.549Z,101069.06
2022-12-12T14:29:54.502Z,101061.00
2022-12-12T14:35:31.528Z,101060.75
2022-12-12T14:41:00.628Z,101070.13
2022-12-12T14:46:22.327Z,101068.66
2022-12-12T14:51:50.919Z,101069.50
2022-12-12T14:57:19.756Z,101092.91
2022-12-12T15:02:48.443Z,101095.91
2022-12-12T15:08:19.359Z,101094.22
2022-12-12T15:14:23.858Z,101106.53
2022-12-12T15:19:52.313Z,101111.22
2022-12-12T15:25:19.834Z,101102.31
2022-12-12T15:30:43.985Z,101104.47
2022-12-12T15:36:18.369Z,101106.16
2022-12-12T15:41:40.495Z,101113.22
2022-12-12T15:47:02.485Z,101107.06
2022-12-12T15:52:30.574Z,101107.06
2022-12-12T15:57:52.956Z,101110.28
2022-12-12T16:03:17.367Z,101119.38
2022-12-12T16:08:45.507Z,101117.69
2022-12-12T16:14:37.058Z,101117.69
2022-12-12T16:20:01.407Z,101115.41
2022-12-12T16:25:29.538Z,101119.00
2022-12-12T16:31:01.102Z,101119.00
2022-12-12T16:36:22.749Z,101106.44
2022-12-12T16:41:44.819Z,101113.44
2022-12-12T16:47:23.753Z,101110.81
2022-12-12T16:52:45.598Z,101104.56
2022-12-12T16:58:07.796Z,101094.78
2022-12-12T17:03:30.671Z,101096.44
2022-12-12T17:08:52.405Z,101105.44
2022-12-12T17:14:22.466Z,101105.22
2022-12-12T17:19:44.257Z,101109.78
2022-12-12T17:25:07.140Z,101106.91
2022-12-12T17:30:29.039Z,101109.41
2022-12-12T17:35:59.184Z,101107.91
2022-12-12T17:41:21.049Z,101105.25
2022-12-12T17:46:42.863Z,101095.19
2022-12-12T17:52:05.051Z,101102.00
2022-12-12T17:57:26.977Z,101093.59
2022-12-12T18:02:48.753Z,101085.16
2022-12-12T18:08:12.748Z,101092.25
2022-12-12T18:13:35.261Z,101098.88
2022-12-12T18:18:57.668Z,101091.38
2022-12-12T18:24:21.573Z,101103.63
2022-12-12T18:29:43.333Z,101106.91
2022-12-12T18:35:05.453Z,101100.19
2022-12-12T18:40:27.279Z,101105.56
2022-12-12T18:45:49.023Z,101098.25
2022-12-12T18:51:25.200Z,101095.63
2022-12-12T18:56:47.477Z,101099.25
2022-12-12T19:02:13.023Z,101086.88
2022-12-12T19:07:34.720Z,101093.59
2022-12-12T19:12:56.391Z,101096.84
2022-12-12T19:18:18.111Z,101086.31
2022-12-12T19:23:40.539Z,101086.50
2022-12-12T19:29:05.171Z,101112.00
2022-12-12T19:34:26.884Z,101102.50
2022-12-12T19:39:50.794Z,101101.16
2022-12-12T19:45:12.574Z,101104.81
2022-12-12T19:50:37.512Z,101102.81
2022-12-12T19:55:59.204Z,101101.72
2022-12-12T20:01:28.698Z,101102.28
2022-12-12T20:06:51.105Z,101108.16
2022-12-12T20:12:13.046Z,101114.78
2022-12-12T20:17:34.754Z,101110.66
2022-12-12T20:22:56.503Z,101108.84
2022-12-12T20:28:18.538Z,101099.81
2022-12-12T20:33:40.942Z,101112.19
2022-12-12T20:39:06.485Z,101103.19
2022-12-12T20:44:29.268Z,101106.00
2022-12-12T20:49:51.162Z,101109.44
2022-12-12T20:55:13.020Z,101116.16
2022-12-12T21:00:36.699Z,101114.06
2022-12-12T21:05:59.740Z,101112.03
2022-12-12T21:11:24.017Z,101117.47
2022-12-12T21:16:45.931Z,101119.81
2022-12-12T21:22:08.558Z,101111.91
2022-12-12T21:27:31.527Z,101116.66
2022-12-12T21:32:53.234Z,101113.69
2022-12-12T21:38:14.928Z,101119.06
2022-12-12T21:43:37.116Z,101109.41
2022-12-12T21:49:17.561Z,101110.91
2022-12-12T21:54:39.499Z,101117.63
2022-12-12T22:00:01.190Z,101117.19
2022-12-12T22:05:22.923Z,101113.72
2022-12-12T22:10:44.617Z,101120.25
2022-12-12T22:16:10.705Z,101118.19
2022-12-12T22:21:32.667Z,101124.34
2022-12-12T22:26:54.481Z,101126.91
2022-12-12T22:32:16.234Z,101114.47
2022-12-12T22:37:38.060Z,101117.88
2022-12-12T22:42:59.890Z,101124.63
2022-12-12T22:48:21.738Z,101120.22
2022-12-12T22:53:44.466Z,101119.28
2022-12-12T22:59:06.962Z,101106.88
2022-12-12T23:04:28.716Z,101097.59
2022-12-12T23:09:52.947Z,101098.28
2022-12-12T23:15:14.856Z,101109.25
2022-12-12T23:20:36.730Z,101104.63
2022-12-12T23:26:07.178Z,101104.28
2022-12-12T23:31:34.922Z,101105.00
2022-12-12T23:36:57.087Z,101105.97
2022-12-12T23:42:18.818Z,101098.13
2022-12-12T23:47:40.473Z,101096.91
2022-12-12T23:53:07.541Z,101096.53
2022-12-12T23:58:32.062Z,101088.94
